Home > Products > Valid Products > TAF

000
FTUS41 KALY 301947 AAB
TAFGFL
TAF AMD
KGFL 301947Z 3020/3118 20012G20KT P6SM VCTS SCT050CB BKN110
      TEMPO 3020/3021 1SM -TSRA BR BKN045CB
     FM302100 21010G18KT P6SM VCSH SCT030 OVC050
      TEMPO 3021/3024 6SM -SHRA BR SCT020 BKN030
     FM310000 21008KT 5SM -SHRA BR OVC025
     FM310500 VRB06KT 4SM -SHRA BR OVC011
     FM310800 36006KT 4SM -SHRA BR OVC009=



000
FTUS41 KALY 301947 AAB
TAFGFL
TAF AMD
KGFL 301947Z 3020/3118 20012G20KT P6SM VCTS SCT050CB BKN110
      TEMPO 3020/3021 1SM -TSRA BR BKN045CB
     FM302100 21010G18KT P6SM VCSH SCT030 OVC050
      TEMPO 3021/3024 6SM -SHRA BR SCT020 BKN030
     FM310000 21008KT 5SM -SHRA BR OVC025
     FM310500 VRB06KT 4SM -SHRA BR OVC011
     FM310800 36006KT 4SM -SHRA BR OVC009=



000
FTUS41 KALY 301930 AAA
TAFGFL
TAF AMD
KGFL 301930Z 3020/3118 20012G20KT P6SM VCTS SCT050CB BKN110
      TEMPO 3020/3021 3SM -TSRA BR BKN045CB
     FM302100 21010G18KT P6SM VCSH SCT030 OVC050
      TEMPO 3021/3024 6SM -SHRA BR SCT020 BKN030
     FM310000 21008KT 5SM -SHRA BR OVC025
     FM310500 VRB06KT 4SM -SHRA BR OVC011
     FM310800 36006KT 4SM -SHRA BR OVC009=



000
FTUS41 KALY 301924 AAB
TAFALB
TAF AMD
KALB 301924Z 3019/3118 17012G22KT P6SM VCTS SCT050CB BKN110
      TEMPO 3019/3021 1SM -TSRA BR SCT030 BKN045CB
     FM302100 19010G20KT P6SM VCSH SCT030 OVC050
      TEMPO 3021/3024 6SM -SHRA BR SCT020 BKN030
     FM310000 19008KT 6SM -SHRA BR OVC025
     FM310800 VRB06KT 4SM -SHRA BR OVC011
     FM311200 34006KT 4SM -SHRA BR OVC009=



000
FTUS41 KALY 301831 AAA
TAFALB
TAF AMD
KALB 301831Z 3019/3118 17012G22KT P6SM VCTS SCT050CB BKN110
      TEMPO 3019/3021 -SHRA BKN045
     FM302100 19010G20KT P6SM VCSH SCT030 OVC050
      TEMPO 3021/3024 6SM -SHRA BR SCT020 BKN030
     FM310000 19008KT 6SM -SHRA BR OVC025
     FM310800 VRB06KT 4SM -SHRA BR OVC011
     FM311200 34006KT 4SM -SHRA BR OVC009=



000
FTUS41 KALY 301831 AAA
TAFALB
TAF AMD
KALB 301831Z 3019/3118 17012G22KT P6SM VCTS SCT050CB BKN110
      TEMPO 3019/3021 -SHRA BKN045
     FM302100 19010G20KT P6SM VCSH SCT030 OVC050
      TEMPO 3021/3024 6SM -SHRA BR SCT020 BKN030
     FM310000 19008KT 6SM -SHRA BR OVC025
     FM310800 VRB06KT 4SM -SHRA BR OVC011
     FM311200 34006KT 4SM -SHRA BR OVC009=



000
FTUS41 KALY 301744 CCA
TAFALB
TAF COR
KALB 301744Z 3018/3118 17012G22KT P6SM VCTS SCT050CB BKN110
     FM302100 19010G20KT P6SM VCSH SCT030 OVC050
      TEMPO 3021/3024 6SM -SHRA BR SCT020 BKN030
     FM310000 19008KT 6SM -SHRA BR OVC025
     FM310800 VRB06KT 4SM -SHRA BR OVC011
     FM311200 34006KT 4SM -SHRA BR OVC009=



000
FTUS41 KALY 301744 CCA
TAFALB
TAF COR
KALB 301744Z 3018/3118 17012G22KT P6SM VCTS SCT050CB BKN110
     FM302100 19010G20KT P6SM VCSH SCT030 OVC050
      TEMPO 3021/3024 6SM -SHRA BR SCT020 BKN030
     FM310000 19008KT 6SM -SHRA BR OVC025
     FM310800 VRB06KT 4SM -SHRA BR OVC011
     FM311200 34006KT 4SM -SHRA BR OVC009=



000
FTUS41 KALY 301734
TAFGFL
TAF
KGFL 301734Z 3018/3118 20012G20KT P6SM SCT050 BKN110
     FM302100 21010G18KT P6SM VCSH SCT030 OVC050
      TEMPO 3021/3024 6SM -SHRA BR SCT020 BKN030
     FM310000 21008KT 5SM -SHRA BR OVC025
     FM310500 VRB06KT 4SM -SHRA BR OVC011
     FM310800 36006KT 4SM -SHRA BR OVC009=



000
FTUS41 KALY 301734
TAFALB
TAF
KALB 301734Z 3018/3118 17012G22KT P6SM SCT050 BKN110
     FM302100 19010G20KT P6SM VCSH SCT030 OVC050
      TEMPO 3021/3024 6SM -SHRA BR SCT020 BKN030
     FM310000 19008KT 6SM -SHRA BR OVC025
     FM310800 VRB06KT 4SM -SHRA BR OVC011
     FM311200 34006KT 4SM -SHRA BR OVC009=



000
FTUS41 KALY 301734
TAFPOU
TAF
KPOU 301734Z 3018/3118 19008G18KT P6SM FEW020 SCT040 SCT100
      TEMPO 3018/3020 BKN040
     FM302000 20010KT P6SM VCSH BKN045
     FM310500 18006KT 5SM -SHRA BR SCT020 OVC035
     FM310800 18005KT 5SM -SHRA BR SCT010 BKN020
     FM311200 VRB06KT 5SM -SHRA BR BKN010 OVC020=



000
FTUS41 KALY 301120
TAFPOU
TAF
KPOU 301120Z 3012/3112 17005KT P6SM BKN020
      TEMPO 3012/3014 SCT020
     FM301400 21008G14KT P6SM FEW020 SCT050 BKN150
     FM302300 20010KT P6SM VCSH BKN050 PROB30 3023/3105 3SM TSRA BR
      OVC020CB
     FM310700 18006KT 5SM -SHRA BR OVC035=



000
FTUS41 KALY 301120
TAFGFL
TAF
KGFL 301120Z 3012/3112 21007KT P6SM SCT120 SCT250
     FM301400 20012G18KT P6SM SCT050 BKN120
     FM302100 21008G14KT P6SM VCSH OVC050 PROB30 3021/3103
      VRB15G25KT 2SM TSRA OVC015CB
     FM310300 21008KT 4SM -SHRA BR OVC025
     FM310900 36008KT 3SM -SHRA BR OVC008=



000
FTUS41 KALY 301120
TAFALB
TAF
KALB 301120Z 3012/3112 17010KT P6SM SCT250
     FM301400 18012G22KT P6SM SCT050 BKN120
     FM302100 19014G25KT P6SM VCSH BKN050 PROB30 3021/3103
      VRB15G25KT 2SM TSRA OVC015CB
     FM310300 19010G16KT 5SM -SHRA BR OVC030
     FM310700 19008KT 3SM -SHRA BR OVC009=



000
FTUS41 KALY 301120
TAFGFL
TAF
KGFL 301120Z 3012/3112 21007KT P6SM SCT120 SCT250
     FM301400 20012G18KT P6SM SCT050 BKN120
     FM302100 21008G14KT P6SM VCSH OVC050 PROB30 3021/3103
      VRB15G25KT 2SM TSRA OVC015CB
     FM310300 21008KT 4SM -SHRA BR OVC025
     FM310900 36008KT 3SM -SHRA BR OVC008=



000
FTUS41 KALY 301120
TAFALB
TAF
KALB 301120Z 3012/3112 17010KT P6SM SCT250
     FM301400 18012G22KT P6SM SCT050 BKN120
     FM302100 19014G25KT P6SM VCSH BKN050 PROB30 3021/3103
      VRB15G25KT 2SM TSRA OVC015CB
     FM310300 19010G16KT 5SM -SHRA BR OVC030
     FM310700 19008KT 3SM -SHRA BR OVC009=



000
FTUS41 KALY 301120
TAFPOU
TAF
KPOU 301120Z 3012/3112 17005KT P6SM BKN020
      TEMPO 3012/3014 SCT020
     FM301400 21008G14KT P6SM FEW020 SCT050 BKN150
     FM302300 20010KT P6SM VCSH BKN050 PROB30 3023/3105 3SM TSRA BR
      OVC020CB
     FM310700 18006KT 5SM -SHRA BR OVC035=



000
FTUS41 KALY 300831 AAA
TAFPOU
TAF AMD
KPOU 300831Z 3009/3106 VRB02KT P6SM BKN020
      TEMPO 3009/3013 4SM BR OVC020
     FM301400 21009KT P6SM SCT050 BKN150
     FM302300 20010KT P6SM VCSH BKN050 PROB30 3023/3105 3SM TSRA BR
      OVC020CB=



000
FTUS41 KALY 300522
TAFPOU
TAF
KPOU 300522Z 3006/3106 VRB02KT P6SM SCT250
      TEMPO 3008/3012 4SM BR BKN035
     FM301500 21009KT P6SM SCT050 BKN150
     FM302300 20010KT P6SM VCSH BKN050 PROB30 3023/3105 3SM TSRA BR
      OVC020CB=



000
FTUS41 KALY 300522
TAFGFL
TAF
KGFL 300522Z 3006/3106 VRB02KT P6SM SCT250
     FM301400 20012G18KT P6SM SCT050 BKN150
     FM302100 21008G14KT P6SM VCSH OVC050 PROB30 3021/3103
      VRB15G25KT 2SM TSRA OVC015CB
     FM310300 21008KT 4SM -SHRA BR OVC025=



000
FTUS41 KALY 300522
TAFALB
TAF
KALB 300522Z 3006/3106 17010KT P6SM SCT250
     FM301300 18012G22KT P6SM SCT050 BKN150
     FM302100 19014G25KT P6SM VCSH BKN050 PROB30 3021/3103
      VRB15G25KT 2SM TSRA OVC015CB
     FM310300 19010G16KT 5SM -SHRA BR OVC030=



000
FTUS41 KALY 300522
TAFGFL
TAF
KGFL 300522Z 3006/3106 VRB02KT P6SM SCT250
     FM301400 20012G18KT P6SM SCT050 BKN150
     FM302100 21008G14KT P6SM VCSH OVC050 PROB30 3021/3103
      VRB15G25KT 2SM TSRA OVC015CB
     FM310300 21008KT 4SM -SHRA BR OVC025=



000
FTUS41 KALY 300522
TAFALB
TAF
KALB 300522Z 3006/3106 17010KT P6SM SCT250
     FM301300 18012G22KT P6SM SCT050 BKN150
     FM302100 19014G25KT P6SM VCSH BKN050 PROB30 3021/3103
      VRB15G25KT 2SM TSRA OVC015CB
     FM310300 19010G16KT 5SM -SHRA BR OVC030=



000
FTUS41 KALY 300522
TAFPOU
TAF
KPOU 300522Z 3006/3106 VRB02KT P6SM SCT250
      TEMPO 3008/3012 4SM BR BKN035
     FM301500 21009KT P6SM SCT050 BKN150
     FM302300 20010KT P6SM VCSH BKN050 PROB30 3023/3105 3SM TSRA BR
      OVC020CB=



000
FTUS41 KALY 292322
TAFALB
TAF
KALB 292322Z 3000/3024 18007KT P6SM BKN250
     FM300300 17006KT P6SM SCT250
     FM301500 18012G22KT P6SM BKN100
     FM302100 19015G25KT P6SM -SHRA OVC045=



000
FTUS41 KALY 292322
TAFPOU
TAF
KPOU 292322Z 3000/3024 18004KT P6SM BKN250
     FM300800 VRB02KT 5SM BR BKN040
     FM301500 20009KT P6SM BKN100
     FM302200 20010KT P6SM BKN045=



000
FTUS41 KALY 292322
TAFGFL
TAF
KGFL 292322Z 3000/3024 20004KT P6SM BKN250
     FM300800 20004KT P6SM BKN100
     FM301500 18010G19KT P6SM BKN100
     FM302100 21010KT P6SM -SHRA OVC045=



000
FTUS41 KALY 291733
TAFGFL
TAF
KGFL 291733Z 2918/3018 16005KT P6SM SKC
     FM300000 VRB03KT P6SM SCT250
     FM300800 20004KT P6SM BKN100
     FM301500 18010G19KT P6SM BKN100=



000
FTUS41 KALY 291733
TAFPOU
TAF
KPOU 291733Z 2918/3018 VRB05KT P6SM SKC
     FM300000 00000KT P6SM SKC
     FM300800 VRB02KT 5SM BR BKN040
     FM301500 20009KT P6SM BKN100=



000
FTUS41 KALY 291733
TAFALB
TAF
KALB 291733Z 2918/3018 16005KT P6SM SKC
     FM300300 17006KT P6SM SCT250
     FM301500 18012G22KT P6SM BKN100=



000
FTUS41 KALY 291733
TAFPOU
TAF
KPOU 291733Z 2918/3018 VRB05KT P6SM SKC
     FM300000 00000KT P6SM SKC
     FM300800 VRB02KT 5SM BR BKN040
     FM301500 20009KT P6SM BKN100=



000
FTUS41 KALY 291733
TAFALB
TAF
KALB 291733Z 2918/3018 16005KT P6SM SKC
     FM300300 17006KT P6SM SCT250
     FM301500 18012G22KT P6SM BKN100=



000
FTUS41 KALY 291733
TAFGFL
TAF
KGFL 291733Z 2918/3018 16005KT P6SM SKC
     FM300000 VRB03KT P6SM SCT250
     FM300800 20004KT P6SM BKN100
     FM301500 18010G19KT P6SM BKN100=



000
FTUS41 KALY 291131
TAFGFL
TAF
KGFL 291131Z 2912/3012 VRB03KT P6SM SKC
     FM291600 16007KT P6SM SKC
     FM300000 VRB03KT P6SM SCT250
     FM300800 20004KT P6SM BKN100=



000
FTUS41 KALY 291131
TAFALB
TAF
KALB 291131Z 2912/3012 10005KT P6SM SKC
     FM291600 16007KT P6SM SKC
     FM300300 17008KT P6SM SCT250
     FM301000 17010KT P6SM BKN100=



000
FTUS41 KALY 291131
TAFPOU
TAF
KPOU 291131Z 2912/3012 VRB02KT P6SM SKC
     FM291600 VRB05KT P6SM SKC
     FM300000 00000KT P6SM SKC
     FM300800 VRB02KT 5SM BR BKN040=



000
FTUS41 KALY 290527
TAFGFL
TAF
KGFL 290527Z 2906/3006 VRB02KT P6SM FEW050
      TEMPO 2908/2910 3SM BR
     FM291600 16007KT P6SM SKC
     FM300000 VRB03KT P6SM SCT250=



000
FTUS41 KALY 290527
TAFPOU
TAF
KPOU 290527Z 2906/3006 00000KT P6SM SKC
      TEMPO 2908/2910 4SM BR
     FM291600 VRB05KT P6SM SKC
     FM300000 00000KT P6SM SKC=



000
FTUS41 KALY 290527
TAFALB
TAF
KALB 290527Z 2906/3006 02005KT P6SM SKC
     FM291600 16007KT P6SM SKC
     FM300300 17008KT P6SM SCT250=



000
FTUS41 KALY 290101 AAB
TAFGFL
TAF AMD
KGFL 290101Z 2901/2924 31006KT P6SM FEW050
     FM290400 VRB02KT P6SM SKC
     FM290700 00000KT 3SM BR SCT003
     FM291400 VRB05KT P6SM SCT035=



000
FTUS41 KALY 290054 AAA
TAFALB
TAF AMD
KALB 290054Z 2901/2924 31006KT P6SM BKN045 BKN150
     FM290300 30006KT P6SM SKC
     FM290800 VRB02KT 3SM BR SCT002
     FM291400 VRB06KT P6SM SCT035=



000
FTUS41 KALY 290002 AAA
TAFGFL
TAF AMD
KGFL 290002Z 2900/2924 32013G18KT P6SM OVC050
     FM290400 VRB02KT P6SM SKC
     FM290700 00000KT 3SM BR SCT003
     FM291400 VRB05KT P6SM SCT035=



000
FTUS41 KALY 282321
TAFPOU
TAF
KPOU 282321Z 2900/2924 29008KT P6SM SKC
     FM290100 VRB03KT P6SM SKC
     FM290800 00000KT 3SM BR SCT003
     FM291400 VRB05KT P6SM SCT035=



000
FTUS41 KALY 282321
TAFGFL
TAF
KGFL 282321Z 2900/2924 27005KT P6SM BKN050
     FM290400 VRB02KT P6SM SKC
     FM290700 00000KT 3SM BR SCT003
     FM291400 VRB05KT P6SM SCT035=



000
FTUS41 KALY 282321
TAFALB
TAF
KALB 282321Z 2900/2924 32012G16KT P6SM BKN045 BKN070 BKN270
     FM290300 30006KT P6SM SKC
     FM290800 VRB02KT 3SM BR SCT002
     FM291400 VRB06KT P6SM SCT035=



000
FTUS41 KALY 282259 AAC
TAFALB
TAF AMD
KALB 282259Z 2823/2918 32012G16KT P6SM BKN045 BKN070 BKN270
     FM290200 30006KT P6SM SKC
     FM290800 VRB02KT 3SM BR SCT002
     FM291400 VRB06KT P6SM SCT035=



000
FTUS41 KALY 282222 AAD
TAFPOU
TAF AMD
KPOU 282222Z 2822/2918 32006KT P6SM SKC
     FM290100 VRB03KT P6SM SKC
     FM290800 00000KT 3SM BR SCT003
     FM291400 VRB05KT P6SM SCT035=



000
FTUS41 KALY 282222 AAD
TAFPOU
TAF AMD
KPOU 282222Z 2822/2918 32006KT P6SM SKC
     FM290100 VRB03KT P6SM SKC
     FM290800 00000KT 3SM BR SCT003
     FM291400 VRB05KT P6SM SCT035=



000
FTUS41 KALY 282221 AAD
TAFGFL
TAF AMD
KGFL 282221Z 2822/2918 27007KT P6SM BKN050
     FM290000 32007KT P6SM SKC
     FM290400 VRB02KT P6SM SKC
     FM290700 00000KT 3SM BR SCT003
     FM291400 VRB05KT P6SM SCT035=



000
FTUS41 KALY 282113 AAC
TAFPOU
TAF AMD
KPOU 282113Z 2821/2918 29013G20KT P6SM FEW050
     FM290100 VRB03KT P6SM SKC
     FM290800 00000KT 3SM BR SCT003
     FM291400 VRB05KT P6SM SCT035=



000
FTUS41 KALY 282113 AAC
TAFPOU
TAF AMD
KPOU 282113Z 2821/2918 29013G20KT P6SM FEW050
     FM290100 VRB03KT P6SM SKC
     FM290800 00000KT 3SM BR SCT003
     FM291400 VRB05KT P6SM SCT035=



000
FTUS41 KALY 282112 AAC
TAFGFL
TAF AMD
KGFL 282112Z 2821/2918 31012KT P6SM SKC
     FM290000 32007KT P6SM SKC
     FM290400 VRB02KT P6SM SKC
     FM290700 00000KT 3SM BR SCT003
     FM291400 VRB05KT P6SM SCT035=



000
FTUS41 KALY 282112 AAC
TAFGFL
TAF AMD
KGFL 282112Z 2821/2918 31012KT P6SM SKC
     FM290000 32007KT P6SM SKC
     FM290400 VRB02KT P6SM SKC
     FM290700 00000KT 3SM BR SCT003
     FM291400 VRB05KT P6SM SCT035=



000
FTUS41 KALY 281958 AAB
TAFPOU
TAF AMD
KPOU 281958Z 2820/2918 26014G20KT P6SM VCSH FEW060
     FM282100 27008KT P6SM SCT050
     FM290100 VRB03KT P6SM SKC
     FM290800 00000KT 3SM BR SCT003
     FM291400 VRB05KT P6SM SCT035=



000
FTUS41 KALY 281955 AAB
TAFALB
TAF AMD
KALB 281955Z 2820/2918 30019G30KT P6SM FEW070 BKN270
     FM290100 30006KT P6SM SKC
     FM290800 VRB02KT 3SM BR SCT002
     FM291400 VRB06KT P6SM SCT035=



000
FTUS41 KALY 281955 AAB
TAFALB
TAF AMD
KALB 281955Z 2820/2918 30019G30KT P6SM FEW070 BKN270
     FM290100 30006KT P6SM SKC
     FM290800 VRB02KT 3SM BR SCT002
     FM291400 VRB06KT P6SM SCT035=



000
FTUS41 KALY 281917 AAB
TAFGFL
TAF AMD
KGFL 281917Z 2819/2918 27015G25KT P6SM FEW050
     FM282200 30012G18KT P6SM SCT050
     FM290000 32007KT P6SM SKC
     FM290400 VRB02KT P6SM SKC
     FM290700 00000KT 3SM BR SCT003
     FM291400 VRB05KT P6SM SCT035=



000
FTUS41 KALY 281911 AAA
TAFPOU
TAF AMD
KPOU 281911Z 2819/2918 24008KT P6SM VCSH SCT060 SCT110
     FM282100 27008KT P6SM SCT050
     FM290100 VRB03KT P6SM SKC
     FM290800 00000KT 3SM BR SCT003
     FM291400 VRB05KT P6SM SCT035=



000
FTUS41 KALY 281801 AAA
TAFALB
TAF AMD
KALB 281801Z 2818/2918 28022G27KT P6SM FEW050 SCT080 BKN270
     FM281900 29012G18KT P6SM SCT050
     FM290100 30006KT P6SM SKC
     FM290800 VRB02KT 3SM BR SCT002
     FM291400 VRB06KT P6SM SCT035=



000
FTUS41 KALY 281800 AAA
TAFGFL
TAF AMD
KGFL 281800Z 2818/2918 24011G22KT P6SM FEW060
     FM282200 30012G18KT P6SM SCT050
     FM290000 32007KT P6SM SKC
     FM290400 VRB02KT P6SM SKC
     FM290700 00000KT 3SM BR SCT003
     FM291400 VRB05KT P6SM SCT035=



000
FTUS41 KALY 281736
TAFALB
TAF
KALB 281736Z 2818/2918 29010G15KT P6SM SCT050
     FM281900 29012G18KT P6SM SCT050
     FM290100 30006KT P6SM SKC
     FM290800 VRB02KT 3SM BR SCT002
     FM291400 VRB06KT P6SM SCT035=



000
FTUS41 KALY 281736
TAFGFL
TAF
KGFL 281736Z 2818/2918 28010G15KT P6SM BKN040
     FM282200 30012G18KT P6SM SCT050
     FM290000 32007KT P6SM SKC
     FM290400 VRB02KT P6SM SKC
     FM290700 00000KT 3SM BR SCT003
     FM291400 VRB05KT P6SM SCT035=



000
FTUS41 KALY 281736
TAFPOU
TAF
KPOU 281736Z 2818/2918 24010G18KT P6SM VCSH SCT050
      TEMPO 2818/2819 VRB10G25KT 3SM -SHRA BR BKN025 OVC050
     FM282100 27008KT P6SM SCT050
     FM290100 VRB03KT P6SM SKC
     FM290800 00000KT 3SM BR SCT003
     FM291400 VRB05KT P6SM SCT035=



000
FTUS41 KALY 281440 AAA
TAFPOU
TAF AMD
KPOU 281440Z 2815/2912 00000KT P6SM SCT015
      TEMPO 2815/2816 BKN015
     FM281600 22006KT P6SM VCSH BKN050
     FM281900 24008G15KT P6SM VCSH BKN050
     FM282300 27008KT P6SM SCT050
     FM290100 VRB03KT P6SM SKC
     FM290800 00000KT 3SM BR SCT003=



000
FTUS41 KALY 281440 AAA
TAFPOU
TAF AMD
KPOU 281440Z 2815/2912 00000KT P6SM SCT015
      TEMPO 2815/2816 BKN015
     FM281600 22006KT P6SM VCSH BKN050
     FM281900 24008G15KT P6SM VCSH BKN050
     FM282300 27008KT P6SM SCT050
     FM290100 VRB03KT P6SM SKC
     FM290800 00000KT 3SM BR SCT003=



000
FTUS41 KALY 281139
TAFGFL
TAF
KGFL 281139Z 2812/2912 20006KT P6SM SCT006 SCT100
      TEMPO 2812/2814 BKN006
     FM281400 20008KT P6SM VCSH BKN050
     FM281700 24010G15KT P6SM VCSH BKN050
     FM282000 30012G18KT P6SM SCT050
     FM290000 32007KT P6SM SKC
     FM290400 VRB02KT P6SM SKC
     FM290700 00000KT 2SM BR BKN003=



000
FTUS41 KALY 281139
TAFPOU
TAF
KPOU 281139Z 2812/2912 00000KT P6SM SCT015
      TEMPO 2812/2814 BKN015
     FM281500 22006KT P6SM VCSH BKN050
     FM281900 24008G15KT P6SM VCSH BKN050
     FM282300 27008KT P6SM SCT050
     FM290100 VRB03KT P6SM SKC
     FM290800 00000KT 3SM BR SCT003=



000
FTUS41 KALY 281139
TAFGFL
TAF
KGFL 281139Z 2812/2912 20006KT P6SM SCT006 SCT100
      TEMPO 2812/2814 BKN006
     FM281400 20008KT P6SM VCSH BKN050
     FM281700 24010G15KT P6SM VCSH BKN050
     FM282000 30012G18KT P6SM SCT050
     FM290000 32007KT P6SM SKC
     FM290400 VRB02KT P6SM SKC
     FM290700 00000KT 2SM BR BKN003=



000
FTUS41 KALY 281139
TAFPOU
TAF
KPOU 281139Z 2812/2912 00000KT P6SM SCT015
      TEMPO 2812/2814 BKN015
     FM281500 22006KT P6SM VCSH BKN050
     FM281900 24008G15KT P6SM VCSH BKN050
     FM282300 27008KT P6SM SCT050
     FM290100 VRB03KT P6SM SKC
     FM290800 00000KT 3SM BR SCT003=



000
FTUS41 KALY 281139
TAFALB
TAF
KALB 281139Z 2812/2912 17008KT P6SM SCT005 SCT100
      TEMPO 2812/2814 BKN005
     FM281400 20008KT P6SM VCSH BKN050
     FM281700 26010G15KT P6SM VCSH BKN050
     FM282100 29012G18KT P6SM SCT050
     FM290100 30006KT P6SM SKC
     FM290800 VRB02KT 3SM BR SCT002=



000
FTUS41 KALY 281139
TAFALB
TAF
KALB 281139Z 2812/2912 17008KT P6SM SCT005 SCT100
      TEMPO 2812/2814 BKN005
     FM281400 20008KT P6SM VCSH BKN050
     FM281700 26010G15KT P6SM VCSH BKN050
     FM282100 29012G18KT P6SM SCT050
     FM290100 30006KT P6SM SKC
     FM290800 VRB02KT 3SM BR SCT002=



000
FTUS41 KALY 281008 AAA
TAFPOU
TAF AMD
KPOU 281008Z 2810/2906 00000KT 6SM BR OVC015
      TEMPO 2810/2812 4SM BR OVC009
     FM281200 VRB02KT P6SM SCT015
      TEMPO 2812/2813 5SM BR BKN015
     FM281400 22006KT P6SM VCSH BKN050
     FM281900 24008G15KT P6SM VCSH BKN050
     FM282300 27008KT P6SM SCT050
     FM290100 VRB03KT P6SM SKC=



000
FTUS41 KALY 281008 AAA
TAFPOU
TAF AMD
KPOU 281008Z 2810/2906 00000KT 6SM BR OVC015
      TEMPO 2810/2812 4SM BR OVC009
     FM281200 VRB02KT P6SM SCT015
      TEMPO 2812/2813 5SM BR BKN015
     FM281400 22006KT P6SM VCSH BKN050
     FM281900 24008G15KT P6SM VCSH BKN050
     FM282300 27008KT P6SM SCT050
     FM290100 VRB03KT P6SM SKC=



000
FTUS41 KALY 281006 AAA
TAFALB
TAF AMD
KALB 281006Z 2810/2906 18006KT P6SM OVC006
     FM281100 18006KT P6SM SCT006 SCT100
      TEMPO 2811/2813 5SM BR BKN006
     FM281400 20008KT P6SM VCSH BKN050
     FM281800 26010G15KT P6SM VCSH BKN050
     FM282100 29012G18KT P6SM SCT050
     FM290100 30006KT P6SM SKC=



000
FTUS41 KALY 281005 AAA
TAFGFL
TAF AMD
KGFL 281005Z 2810/2906 20006KT 6SM BR SCT006 OVC015
      TEMPO 2810/2813 4SM BR OVC006
     FM281400 20008KT P6SM VCSH BKN050
     FM281700 24010G15KT P6SM VCSH BKN050
     FM282000 30012G18KT P6SM SCT050
     FM290000 32007KT P6SM SKC
     FM290400 VRB02KT P6SM SKC=



000
FTUS41 KALY 281005 AAA
TAFGFL
TAF AMD
KGFL 281005Z 2810/2906 20006KT 6SM BR SCT006 OVC015
      TEMPO 2810/2813 4SM BR OVC006
     FM281400 20008KT P6SM VCSH BKN050
     FM281700 24010G15KT P6SM VCSH BKN050
     FM282000 30012G18KT P6SM SCT050
     FM290000 32007KT P6SM SKC
     FM290400 VRB02KT P6SM SKC=



000
FTUS41 KALY 280558
TAFPOU
TAF
KPOU 280558Z 2806/2906 00000KT 6SM BR BKN019
      TEMPO 2806/2810 2SM BR OVC009
     FM281000 VRB02KT 5SM BR SCT007 OVC015
      TEMPO 2810/2812 2SM BR OVC007
     FM281400 22006KT P6SM VCSH BKN050
     FM281900 24008G15KT P6SM VCSH BKN050
     FM282300 27008KT P6SM SCT050
     FM290100 VRB03KT P6SM SKC=



000
FTUS41 KALY 280558
TAFPOU
TAF
KPOU 280558Z 2806/2906 00000KT 6SM BR BKN019
      TEMPO 2806/2810 2SM BR OVC009
     FM281000 VRB02KT 5SM BR SCT007 OVC015
      TEMPO 2810/2812 2SM BR OVC007
     FM281400 22006KT P6SM VCSH BKN050
     FM281900 24008G15KT P6SM VCSH BKN050
     FM282300 27008KT P6SM SCT050
     FM290100 VRB03KT P6SM SKC=



000
FTUS41 KALY 280558
TAFALB
TAF
KALB 280558Z 2806/2906 18006KT P6SM OVC006
      TEMPO 2806/2810 2SM BR OVC004
     FM281000 18006KT 5SM BR SCT007 OVC015
      TEMPO 2810/2812 2SM BR OVC007
     FM281400 20008KT P6SM VCSH BKN050
     FM281800 26010G15KT P6SM VCSH BKN050
     FM282100 29012G18KT P6SM SCT050
     FM290100 30006KT P6SM SKC=



000
FTUS41 KALY 280558
TAFGFL
TAF
KGFL 280558Z 2806/2906 20006KT P6SM OVC008
      TEMPO 2806/2810 2SM BR OVC005
     FM281000 20006KT 5SM BR SCT007 OVC015
      TEMPO 2810/2812 2SM BR OVC007
     FM281400 20008KT P6SM VCSH BKN050
     FM281700 24010G15KT P6SM VCSH BKN050
     FM282000 30012G18KT P6SM SCT050
     FM290000 32007KT P6SM SKC
     FM290400 VRB02KT P6SM SKC=



000
FTUS41 KALY 280558
TAFALB
TAF
KALB 280558Z 2806/2906 18006KT P6SM OVC006
      TEMPO 2806/2810 2SM BR OVC004
     FM281000 18006KT 5SM BR SCT007 OVC015
      TEMPO 2810/2812 2SM BR OVC007
     FM281400 20008KT P6SM VCSH BKN050
     FM281800 26010G15KT P6SM VCSH BKN050
     FM282100 29012G18KT P6SM SCT050
     FM290100 30006KT P6SM SKC=



000
FTUS41 KALY 280558
TAFGFL
TAF
KGFL 280558Z 2806/2906 20006KT P6SM OVC008
      TEMPO 2806/2810 2SM BR OVC005
     FM281000 20006KT 5SM BR SCT007 OVC015
      TEMPO 2810/2812 2SM BR OVC007
     FM281400 20008KT P6SM VCSH BKN050
     FM281700 24010G15KT P6SM VCSH BKN050
     FM282000 30012G18KT P6SM SCT050
     FM290000 32007KT P6SM SKC
     FM290400 VRB02KT P6SM SKC=



000
FTUS41 KALY 280447 AAC
TAFALB
TAF AMD
KALB 280447Z 2805/2824 17007KT P6SM BKN008
      TEMPO 2805/2809 4SM BR OVC008
     FM280900 18007KT 6SM BR SCT008 BKN080
      TEMPO 2809/2813 3SM BR BKN008
     FM281400 21013KT P6SM SCT035 OVC080
     FM281800 26012G22KT P6SM VCSH OVC045=



000
FTUS41 KALY 280426 AAD
TAFGFL
TAF AMD
KGFL 280426Z 2804/2824 20006KT P6SM OVC008
      TEMPO 2805/2809 4SM BR OVC008
     FM280900 VRB03KT 3SM BR SCT007 OVC015
     FM281400 19011KT P6SM SCT015 OVC050
     FM281800 25010KT P6SM VCSH OVC045=



000
FTUS41 KALY 280145 AAB
TAFALB
TAF AMD
KALB 280145Z 2802/2824 18011KT P6SM VCSH BKN007 BKN210
     FM280400 18007KT 5SM BR BKN080
     FM281000 18004KT 5SM BR SCT010 OVC035
     FM281400 21013KT P6SM SCT035 OVC080
     FM281800 26012G22KT P6SM VCSH OVC045=



000
FTUS41 KALY 280130 AAC
TAFGFL
TAF AMD
KGFL 280130Z 2802/2824 21006KT P6SM VCSH BKN009
     FM280400 20003KT 3SM BR BKN025
     FM281000 VRB03KT 3SM BR SCT007 OVC015
     FM281400 19011KT P6SM SCT015 OVC050
     FM281800 25010KT P6SM VCSH OVC045=



000
FTUS41 KALY 280130 AAC
TAFGFL
TAF AMD
KGFL 280130Z 2802/2824 21006KT P6SM VCSH BKN009
     FM280400 20003KT 3SM BR BKN025
     FM281000 VRB03KT 3SM BR SCT007 OVC015
     FM281400 19011KT P6SM SCT015 OVC050
     FM281800 25010KT P6SM VCSH OVC045=



000
FTUS41 KALY 280059 AAB
TAFGFL
TAF AMD
KGFL 280059Z 2801/2824 19007KT P6SM VCSH SCT010
     FM280400 20003KT 3SM BR BKN025
     FM281000 VRB03KT 3SM BR SCT007 OVC015
     FM281400 19011KT P6SM SCT015 OVC050
     FM281800 25010KT P6SM VCSH OVC045=



000
FTUS41 KALY 280059 AAB
TAFGFL
TAF AMD
KGFL 280059Z 2801/2824 19007KT P6SM VCSH SCT010
     FM280400 20003KT 3SM BR BKN025
     FM281000 VRB03KT 3SM BR SCT007 OVC015
     FM281400 19011KT P6SM SCT015 OVC050
     FM281800 25010KT P6SM VCSH OVC045=



000
FTUS41 KALY 280032 AAA
TAFALB
TAF AMD
KALB 280032Z 2801/2824 17011G16KT P6SM VCSH BKN010 BKN210 BKN250
     FM280400 18007KT 5SM BR BKN080
     FM281000 18004KT 5SM BR SCT010 OVC035
     FM281400 21013KT P6SM SCT035 OVC080
     FM281800 26012G22KT P6SM VCSH OVC045=



000
FTUS41 KALY 280032 AAA
TAFALB
TAF AMD
KALB 280032Z 2801/2824 17011G16KT P6SM VCSH BKN010 BKN210 BKN250
     FM280400 18007KT 5SM BR BKN080
     FM281000 18004KT 5SM BR SCT010 OVC035
     FM281400 21013KT P6SM SCT035 OVC080
     FM281800 26012G22KT P6SM VCSH OVC045=



000
FTUS41 KALY 280031 AAA
TAFGFL
TAF AMD
KGFL 280031Z 2801/2824 19007KT P6SM VCSH BKN010
     FM280400 20003KT 3SM BR BKN025
     FM281000 VRB03KT 3SM BR SCT007 OVC015
     FM281400 19011KT P6SM SCT015 OVC050
     FM281800 25010KT P6SM VCSH OVC045=



000
FTUS41 KALY 280031 AAA
TAFGFL
TAF AMD
KGFL 280031Z 2801/2824 19007KT P6SM VCSH BKN010
     FM280400 20003KT 3SM BR BKN025
     FM281000 VRB03KT 3SM BR SCT007 OVC015
     FM281400 19011KT P6SM SCT015 OVC050
     FM281800 25010KT P6SM VCSH OVC045=



000
FTUS41 KALY 272326
TAFGFL
TAF
KGFL 272326Z 2800/2824 17008KT P6SM VCSH SCT007 BKN040 BKN070
     FM280400 20003KT 3SM BR BKN025
     FM281000 VRB03KT 3SM BR SCT007 OVC015
     FM281400 19011KT P6SM SCT015 OVC050
     FM281800 25010KT P6SM VCSH OVC045=



000
FTUS41 KALY 272326
TAFPOU
TAF
KPOU 272326Z 2800/2824 15004KT P6SM VCSH FEW050 FEW100 SCT120
     FM280200 18006KT P6SM VCSH BKN080
     FM280400 VRB02KT 4SM BR BKN080
     FM281000 VRB02KT 3SM BR SCT010 BKN035
     FM281400 22006KT P6SM SCT035 OVC080
     FM281800 23006KT P6SM VCSH OVC045=



000
FTUS41 KALY 272326
TAFALB
TAF
KALB 272326Z 2800/2824 18008KT P6SM FEW045 BKN090 BKN130
     FM280100 18010G15KT P6SM VCSH BKN060
     FM280400 18007KT 5SM BR BKN080
     FM281000 18004KT 5SM BR SCT010 OVC035
     FM281400 21013KT P6SM SCT035 OVC080
     FM281800 26012G22KT P6SM VCSH OVC045=



000
FTUS41 KALY 272326
TAFGFL
TAF
KGFL 272326Z 2800/2824 17008KT P6SM VCSH SCT007 BKN040 BKN070
     FM280400 20003KT 3SM BR BKN025
     FM281000 VRB03KT 3SM BR SCT007 OVC015
     FM281400 19011KT P6SM SCT015 OVC050
     FM281800 25010KT P6SM VCSH OVC045=



000
FTUS41 KALY 272326
TAFPOU
TAF
KPOU 272326Z 2800/2824 15004KT P6SM VCSH FEW050 FEW100 SCT120
     FM280200 18006KT P6SM VCSH BKN080
     FM280400 VRB02KT 4SM BR BKN080
     FM281000 VRB02KT 3SM BR SCT010 BKN035
     FM281400 22006KT P6SM SCT035 OVC080
     FM281800 23006KT P6SM VCSH OVC045=



000
FTUS41 KALY 272326
TAFALB
TAF
KALB 272326Z 2800/2824 18008KT P6SM FEW045 BKN090 BKN130
     FM280100 18010G15KT P6SM VCSH BKN060
     FM280400 18007KT 5SM BR BKN080
     FM281000 18004KT 5SM BR SCT010 OVC035
     FM281400 21013KT P6SM SCT035 OVC080
     FM281800 26012G22KT P6SM VCSH OVC045=



    US Dept of Commerce
    National Oceanic and Atmospheric Administration
    National Weather Service
    1325 East West Highway
    Silver Spring, MD 20910
    Page Author: NWS Internet Services Team
Disclaimer
Information Quality
Credits
Glossary
Privacy Policy
Freedom of Information Act (FOIA)
About Us
Career Opportunities